createdAt,value
2016-07-14T00:00:58.227Z,14.35
2016-07-14T00:01:58.284Z,14.31
2016-07-14T00:02:58.194Z,14.31
2016-07-14T00:03:58.224Z,14.35
2016-07-14T00:04:58.217Z,14.34
2016-07-14T00:05:58.223Z,14.25
2016-07-14T00:06:58.239Z,14.25
2016-07-14T00:07:58.236Z,14.2
2016-07-14T00:08:58.251Z,14.31
2016-07-14T00:09:58.240Z,14.17
2016-07-14T00:10:58.241Z,14.24
2016-07-14T00:11:58.243Z,14.29
2016-07-14T00:12:58.243Z,14.28
2016-07-14T00:13:58.214Z,14.24
2016-07-14T00:14:58.257Z,14.25
2016-07-14T00:15:58.220Z,14.24
2016-07-14T00:16:58.293Z,14.14
2016-07-14T00:17:58.290Z,14.2
2016-07-14T00:18:58.248Z,13.99
2016-07-14T00:19:58.250Z,14.09
2016-07-14T00:20:58.225Z,14.14
2016-07-14T00:21:58.242Z,14.17
2016-07-14T00:22:58.281Z,14.07
2016-07-14T00:23:58.228Z,14.02
2016-07-14T00:24:58.255Z,13.98
2016-07-14T00:25:58.230Z,13.96
2016-07-14T00:26:58.251Z,13.98
2016-07-14T00:27:58.288Z,13.95
2016-07-14T00:28:58.284Z,14.04
2016-07-14T00:29:58.286Z,13.94
2016-07-14T00:30:58.320Z,13.88
2016-07-14T00:31:58.251Z,13.88
2016-07-14T00:32:58.246Z,13.98
2016-07-14T00:33:58.280Z,13.81
2016-07-14T00:34:58.269Z,13.89
2016-07-14T00:35:58.303Z,13.81
2016-07-14T00:36:58.280Z,13.73
2016-07-14T00:37:58.319Z,13.74
2016-07-14T00:38:58.282Z,13.8
2016-07-14T00:39:58.250Z,13.71
2016-07-14T00:40:58.404Z,13.77
2016-07-14T00:41:58.264Z,13.7
2016-07-14T00:42:58.299Z,13.67
2016-07-14T00:43:58.317Z,13.79
2016-07-14T00:44:58.296Z,13.74
2016-07-14T00:45:58.320Z,13.56
2016-07-14T00:46:58.311Z,13.61
2016-07-14T00:47:58.317Z,13.56
2016-07-14T00:48:58.267Z,13.44
2016-07-14T00:49:58.313Z,13.52
2016-07-14T00:50:58.283Z,13.43
2016-07-14T00:51:58.285Z,13.43
2016-07-14T00:52:58.321Z,13.4
2016-07-14T00:53:58.275Z,13.33
2016-07-14T00:54:58.265Z,13.33
2016-07-14T00:55:58.375Z,13.17
2016-07-14T00:56:58.266Z,13.32
2016-07-14T00:57:58.253Z,13.18
2016-07-14T00:58:58.279Z,13.14
2016-07-14T00:59:58.283Z,13.15
2016-07-14T01:00:58.283Z,13.03
2016-07-14T01:01:58.254Z,13.06
2016-07-14T01:02:58.312Z,13.02
2016-07-14T01:03:58.331Z,12.93
2016-07-14T01:04:58.324Z,12.97
2016-07-14T01:05:58.349Z,12.89
2016-07-14T01:06:58.348Z,12.85
2016-07-14T01:07:58.279Z,12.77
2016-07-14T01:08:58.337Z,12.82
2016-07-14T01:09:58.251Z,12.84
2016-07-14T01:10:58.358Z,12.67
2016-07-14T01:11:58.306Z,12.92
2016-07-14T01:12:58.313Z,12.52
2016-07-14T01:13:58.277Z,12.69
2016-07-14T01:14:58.283Z,12.57
2016-07-14T01:15:58.290Z,12.59
2016-07-14T01:16:58.312Z,12.52
2016-07-14T01:17:58.294Z,12.46
2016-07-14T01:18:58.317Z,12.46
2016-07-14T01:19:58.316Z,12.37
2016-07-14T01:20:58.284Z,12.44
2016-07-14T01:21:58.284Z,12.33
2016-07-14T01:22:58.284Z,12.46
2016-07-14T01:23:58.348Z,12.29
2016-07-14T01:24:58.344Z,12.33
2016-07-14T01:25:58.298Z,12.31
2016-07-14T01:26:58.282Z,12.29
2016-07-14T01:27:58.346Z,12.23
2016-07-14T01:28:58.345Z,12.31
2016-07-14T01:29:58.380Z,12.19
2016-07-14T01:30:58.352Z,12.15
2016-07-14T01:31:58.307Z,12.26
2016-07-14T01:32:58.286Z,12.12
2016-07-14T01:33:58.372Z,12.21
2016-07-14T01:34:58.354Z,12.15
2016-07-14T01:35:58.299Z,12.16
2016-07-14T01:36:58.285Z,12.13
2016-07-14T01:37:58.312Z,12.11
2016-07-14T01:38:58.319Z,12.23
2016-07-14T01:39:58.294Z,12.12
2016-07-14T01:40:58.327Z,12.21
2016-07-14T01:41:58.309Z,12.05
2016-07-14T01:42:58.298Z,12.09
2016-07-14T01:43:58.293Z,12.08
2016-07-14T01:44:58.387Z,12.04
2016-07-14T01:45:58.323Z,12.04
2016-07-14T01:46:58.374Z,11.97
2016-07-14T01:47:59.142Z,12.06
2016-07-14T01:48:58.646Z,11.97
2016-07-14T01:49:58.438Z,11.93
2016-07-14T01:50:58.945Z,12.05
2016-07-14T01:51:58.687Z,11.94
2016-07-14T01:52:58.476Z,11.72
2016-07-14T01:53:58.500Z,11.8
2016-07-14T01:54:58.478Z,11.94
2016-07-14T01:55:59.506Z,11.78
2016-07-14T01:56:58.753Z,11.74
2016-07-14T01:57:58.582Z,11.77
2016-07-14T01:58:58.463Z,11.86
2016-07-14T01:59:58.450Z,11.7
2016-07-14T02:00:58.436Z,11.71
2016-07-14T02:01:58.713Z,11.61
2016-07-14T02:02:58.311Z,11.67
2016-07-14T02:03:58.311Z,11.59
2016-07-14T02:04:58.386Z,11.62
2016-07-14T02:05:58.376Z,11.43
2016-07-14T02:06:58.349Z,11.53
2016-07-14T02:07:58.384Z,11.62
2016-07-14T02:08:58.320Z,11.44
2016-07-14T02:09:58.346Z,11.44
2016-07-14T02:10:58.440Z,11.52
2016-07-14T02:11:58.409Z,11.54
2016-07-14T02:12:58.386Z,11.59
2016-07-14T02:13:58.376Z,11.44
2016-07-14T02:14:58.377Z,11.54
2016-07-14T02:15:58.305Z,11.49
2016-07-14T02:16:58.329Z,11.44
2016-07-14T02:17:58.407Z,11.46
2016-07-14T02:18:58.510Z,11.44
2016-07-14T02:19:58.364Z,11.39
2016-07-14T02:20:58.374Z,11.31
2016-07-14T02:21:58.350Z,11.46
2016-07-14T02:22:58.374Z,11.47
2016-07-14T02:23:58.351Z,11.35
2016-07-14T02:24:58.367Z,11.28
2016-07-14T02:25:58.348Z,11.34
2016-07-14T02:26:58.383Z,11.28
2016-07-14T02:27:58.385Z,11.25
2016-07-14T02:28:58.381Z,11.31
2016-07-14T02:29:58.347Z,11.34
2016-07-14T02:30:58.353Z,11.27
2016-07-14T02:31:58.345Z,11.25
2016-07-14T02:32:58.351Z,11.24
2016-07-14T02:33:58.385Z,11.13
2016-07-14T02:34:58.405Z,11.29
2016-07-14T02:35:58.382Z,11.27
2016-07-14T02:36:58.404Z,11.24
2016-07-14T02:37:58.402Z,11.2
2016-07-14T02:38:58.388Z,11.14
2016-07-14T02:39:58.351Z,11.2
2016-07-14T02:40:58.378Z,11.13
2016-07-14T02:41:58.364Z,11.13
2016-07-14T02:42:58.422Z,11.19
2016-07-14T02:43:58.424Z,11.11
2016-07-14T02:44:58.374Z,11.02
2016-07-14T02:45:58.436Z,11.09
2016-07-14T02:46:58.363Z,11.11
2016-07-14T02:47:58.356Z,11.07
2016-07-14T02:48:58.377Z,11.03
2016-07-14T02:49:58.392Z,11.07
2016-07-14T02:50:58.398Z,11.13
2016-07-14T02:51:58.425Z,11.02
2016-07-14T02:52:58.350Z,11.01
2016-07-14T02:53:58.472Z,10.94
2016-07-14T02:54:58.384Z,11.01
2016-07-14T02:55:58.384Z,11.01
2016-07-14T02:56:58.392Z,11.01
2016-07-14T02:57:58.408Z,10.94
2016-07-14T02:58:58.385Z,10.96
2016-07-14T02:59:58.350Z,10.98
2016-07-14T03:00:58.395Z,10.95
2016-07-14T03:01:58.455Z,10.99
2016-07-14T03:02:58.378Z,10.96
2016-07-14T03:03:58.351Z,10.91
2016-07-14T03:04:58.366Z,11.09
2016-07-14T03:05:58.397Z,10.99
2016-07-14T03:06:58.440Z,10.96
2016-07-14T03:07:58.378Z,11.03
2016-07-14T03:08:58.385Z,10.98
2016-07-14T03:09:58.380Z,10.92
2016-07-14T03:10:58.388Z,10.96
2016-07-14T03:11:58.395Z,11.06
2016-07-14T03:12:58.371Z,10.98
2016-07-14T03:13:58.395Z,11.06
2016-07-14T03:14:58.371Z,11.01
2016-07-14T03:15:58.380Z,11.01
2016-07-14T03:16:58.469Z,11.03
2016-07-14T03:17:58.395Z,11.01
2016-07-14T03:18:58.379Z,10.92
2016-07-14T03:19:58.386Z,10.99
2016-07-14T03:20:58.376Z,10.98
2016-07-14T03:21:58.382Z,11.03
2016-07-14T03:22:58.374Z,11.07
2016-07-14T03:23:58.427Z,11.01
2016-07-14T03:24:58.382Z,11.03
2016-07-14T03:25:58.410Z,11.07
2016-07-14T03:26:58.383Z,11.07
2016-07-14T03:27:58.400Z,11.09
2016-07-14T03:28:58.388Z,11.03
2016-07-14T03:29:58.440Z,11.07
2016-07-14T03:30:58.385Z,11.11
2016-07-14T03:31:58.441Z,10.92
2016-07-14T03:32:58.413Z,11.07
2016-07-14T03:33:58.472Z,11.06
2016-07-14T03:34:58.449Z,11.09
2016-07-14T03:35:58.389Z,11.07
2016-07-14T03:36:58.424Z,11.13
2016-07-14T03:37:58.401Z,11.03
2016-07-14T03:38:58.417Z,11.03
2016-07-14T03:39:58.415Z,10.95
2016-07-14T03:40:58.443Z,11.01
2016-07-14T03:41:58.404Z,11.11
2016-07-14T03:42:58.453Z,11.03
2016-07-14T03:43:58.394Z,10.89
2016-07-14T03:44:58.435Z,11.1
2016-07-14T03:45:58.473Z,10.99
2016-07-14T03:46:58.533Z,10.96
2016-07-14T03:47:58.382Z,11.02
2016-07-14T03:48:58.397Z,11.01
2016-07-14T03:49:58.443Z,11.07
2016-07-14T03:50:58.504Z,10.91
2016-07-14T03:51:58.383Z,11.01
2016-07-14T03:52:58.444Z,10.96
2016-07-14T03:53:58.425Z,11.06
2016-07-14T03:54:58.388Z,11.11
2016-07-14T03:55:58.388Z,11.14
2016-07-14T03:56:58.399Z,11.11
2016-07-14T03:57:59.006Z,11.24
2016-07-14T03:58:58.489Z,11.07
2016-07-14T03:59:58.477Z,11.09
2016-07-14T04:00:58.401Z,11.06
2016-07-14T04:01:58.422Z,11.13
2016-07-14T04:02:58.444Z,11.27
2016-07-14T04:03:58.423Z,11.14
2016-07-14T04:04:58.413Z,11.29
2016-07-14T04:05:58.476Z,11.14
2016-07-14T04:06:58.444Z,11.2
2016-07-14T04:07:58.419Z,11.24
2016-07-14T04:08:58.425Z,11.35
2016-07-14T04:09:58.461Z,11.29
2016-07-14T04:10:58.472Z,11.39
2016-07-14T04:11:58.415Z,11.5
2016-07-14T04:12:58.435Z,11.46
2016-07-14T04:13:58.431Z,11.61
2016-07-14T04:14:58.443Z,11.54
2016-07-14T04:15:58.414Z,11.52
2016-07-14T04:16:58.407Z,11.53
2016-07-14T04:17:58.413Z,11.67
2016-07-14T04:18:58.450Z,11.57
2016-07-14T04:19:58.483Z,11.71
2016-07-14T04:20:58.444Z,11.64
2016-07-14T04:21:58.447Z,11.7
2016-07-14T04:22:58.425Z,11.68
2016-07-14T04:23:58.477Z,11.61
2016-07-14T04:24:58.445Z,11.65
2016-07-14T04:25:58.428Z,11.61
2016-07-14T04:26:58.475Z,11.61
2016-07-14T04:27:58.475Z,11.5
2016-07-14T04:28:58.479Z,11.68
2016-07-14T04:29:58.435Z,11.7
2016-07-14T04:30:58.415Z,11.68
2016-07-14T04:31:58.418Z,11.68
2016-07-14T04:32:58.416Z,11.64
2016-07-14T04:33:58.419Z,11.7
2016-07-14T04:34:58.461Z,11.75
2016-07-14T04:35:58.526Z,11.75
2016-07-14T04:36:58.481Z,11.68
2016-07-14T04:37:58.503Z,11.78
2016-07-14T04:38:58.448Z,11.8
2016-07-14T04:39:58.455Z,11.85
2016-07-14T04:40:58.477Z,11.85
2016-07-14T04:41:58.519Z,11.85
2016-07-14T04:42:58.525Z,11.9
2016-07-14T04:43:58.455Z,11.83
2016-07-14T04:44:58.536Z,11.94
2016-07-14T04:45:58.452Z,11.87
2016-07-14T04:46:58.535Z,11.99
2016-07-14T04:47:58.513Z,11.9
2016-07-14T04:48:58.473Z,11.99
2016-07-14T04:49:58.448Z,12.04
2016-07-14T04:50:58.460Z,12.12
2016-07-14T04:51:58.449Z,12.08
2016-07-14T04:52:58.444Z,12.13
2016-07-14T04:53:58.435Z,12.2
2016-07-14T04:54:58.478Z,12.16
2016-07-14T04:55:58.451Z,12.2
2016-07-14T04:56:58.484Z,12.11
2016-07-14T04:57:58.522Z,12.26
2016-07-14T04:58:58.427Z,12.27
2016-07-14T04:59:58.460Z,12.38
2016-07-14T05:00:58.477Z,12.24
2016-07-14T05:01:58.492Z,12.31
2016-07-14T05:02:58.520Z,12.49
2016-07-14T05:03:58.513Z,12.56
2016-07-14T05:04:58.479Z,12.42
2016-07-14T05:05:58.492Z,12.51
2016-07-14T05:06:58.503Z,12.57
2016-07-14T05:07:58.553Z,12.67
2016-07-14T05:08:59.395Z,12.59
2016-07-14T05:09:58.507Z,12.51
2016-07-14T05:10:58.542Z,12.66
2016-07-14T05:11:58.479Z,12.74
2016-07-14T05:12:58.481Z,12.67
2016-07-14T05:13:58.487Z,12.69
2016-07-14T05:14:58.557Z,12.79
2016-07-14T05:15:58.694Z,12.79
2016-07-14T05:16:58.529Z,12.74
2016-07-14T05:17:58.556Z,12.95
2016-07-14T05:18:58.478Z,12.87
2016-07-14T05:19:58.488Z,12.85
2016-07-14T05:20:58.523Z,13.03
2016-07-14T05:21:58.528Z,13.04
2016-07-14T05:22:58.520Z,13.24
2016-07-14T05:23:58.486Z,13.43
2016-07-14T05:24:58.773Z,13.55
2016-07-14T05:25:59.574Z,13.65
2016-07-14T05:26:58.510Z,13.7
2016-07-14T05:27:58.496Z,13.65
2016-07-14T05:28:58.476Z,13.87
2016-07-14T05:29:58.538Z,13.83
2016-07-14T05:30:58.502Z,14.06
2016-07-14T05:31:58.485Z,13.99
2016-07-14T05:32:58.478Z,14.2
2016-07-14T05:33:58.526Z,14.1
2016-07-14T05:34:58.480Z,14.24
2016-07-14T05:35:59.067Z,14.35
2016-07-14T05:36:58.688Z,14.56
2016-07-14T05:37:59.232Z,14.57
2016-07-14T05:38:58.504Z,14.5
2016-07-14T05:39:58.588Z,14.72
2016-07-14T05:40:58.506Z,14.65
2016-07-14T05:41:58.482Z,14.81
2016-07-14T05:42:58.513Z,14.9
2016-07-14T05:43:58.520Z,14.64
2016-07-14T05:44:58.586Z,14.9
2016-07-14T05:45:58.570Z,14.75
2016-07-14T05:46:58.626Z,14.71
2016-07-14T05:47:58.560Z,14.74
2016-07-14T05:48:58.510Z,14.71
2016-07-14T05:49:58.510Z,14.71
2016-07-14T05:50:58.518Z,14.67
2016-07-14T05:51:58.482Z,14.69
2016-07-14T05:52:58.553Z,14.72
2016-07-14T05:53:58.486Z,14.71
2016-07-14T05:54:58.528Z,14.57
2016-07-14T05:55:58.486Z,14.61
2016-07-14T05:56:58.574Z,14.56
2016-07-14T05:57:58.521Z,14.71
2016-07-14T05:58:58.493Z,14.67
2016-07-14T05:59:58.540Z,14.6
2016-07-14T06:00:58.500Z,14.6
2016-07-14T06:01:58.534Z,14.62
2016-07-14T06:02:58.526Z,14.64
2016-07-14T06:03:58.490Z,14.67
2016-07-14T06:04:58.518Z,14.68
2016-07-14T06:05:58.566Z,14.84
2016-07-14T06:06:59.216Z,14.69
2016-07-14T06:07:58.563Z,14.78
2016-07-14T06:08:59.084Z,14.81
2016-07-14T06:09:58.560Z,14.83
2016-07-14T06:10:58.570Z,14.84
2016-07-14T06:11:58.540Z,14.9
2016-07-14T06:12:58.511Z,15.03
2016-07-14T06:13:58.572Z,15.09
2016-07-14T06:14:58.518Z,15.13
2016-07-14T06:15:58.560Z,15.19
2016-07-14T06:16:59.082Z,15.24
2016-07-14T06:17:58.514Z,15.27
2016-07-14T06:18:58.513Z,15.28
2016-07-14T06:19:58.542Z,15.33
2016-07-14T06:20:58.542Z,15.41
2016-07-14T06:21:58.527Z,15.36
2016-07-14T06:22:58.577Z,15.41
2016-07-14T06:23:58.545Z,15.56
2016-07-14T06:24:59.235Z,15.64
2016-07-14T06:25:58.570Z,15.79
2016-07-14T06:26:58.503Z,16
2016-07-14T06:27:58.512Z,16.18
2016-07-14T06:28:58.538Z,16.38
2016-07-14T06:29:58.511Z,16.63
2016-07-14T06:30:58.829Z,16.5
2016-07-14T06:31:58.611Z,16.65
2016-07-14T06:32:58.546Z,16.93
2016-07-14T06:33:58.571Z,17.1
2016-07-14T06:34:58.575Z,17.26
2016-07-14T06:35:58.613Z,17.54
2016-07-14T06:36:58.642Z,17.67
2016-07-14T06:37:58.573Z,17.89
2016-07-14T06:38:58.545Z,18.09
2016-07-14T06:39:58.602Z,18.25
2016-07-14T06:40:58.588Z,18.25
2016-07-14T06:41:58.565Z,18.31
2016-07-14T06:42:59.230Z,18.4
2016-07-14T06:43:58.579Z,18.47
2016-07-14T06:44:58.850Z,18.5
2016-07-14T06:45:58.648Z,18.62
2016-07-14T06:46:58.653Z,18.76
2016-07-14T06:47:58.736Z,18.79
2016-07-14T06:48:58.542Z,18.77
2016-07-14T06:49:58.543Z,18.79
2016-07-14T06:50:58.654Z,18.8
2016-07-14T06:51:58.539Z,18.9
2016-07-14T06:52:58.550Z,18.87
2016-07-14T06:53:58.573Z,18.8
2016-07-14T06:54:58.605Z,18.92
2016-07-14T06:55:58.603Z,18.94
2016-07-14T06:56:58.590Z,18.95
2016-07-14T06:57:58.597Z,18.97
2016-07-14T06:58:58.629Z,19.13
2016-07-14T06:59:58.601Z,19.14
2016-07-14T07:00:58.578Z,18.97
2016-07-14T07:01:58.581Z,19.08
2016-07-14T07:02:58.572Z,18.9
2016-07-14T07:03:58.592Z,19.14
2016-07-14T07:04:58.647Z,19.78
2016-07-14T07:05:58.586Z,19.78
2016-07-14T07:06:58.606Z,19.79
2016-07-14T07:07:58.586Z,19.7
2016-07-14T07:08:58.581Z,19.84
2016-07-14T07:09:58.579Z,20.1
2016-07-14T07:10:58.629Z,20.87
2016-07-14T07:11:58.605Z,21.67
2016-07-14T07:12:58.599Z,22.12
2016-07-14T07:13:58.638Z,22.57
2016-07-14T07:17:09.602Z,22.74
2016-07-14T07:17:21.322Z,23.09
2016-07-14T07:18:21.314Z,23.85
2016-07-14T07:19:21.320Z,23.17
2016-07-14T07:20:21.763Z,22.94
2016-07-14T07:21:21.319Z,23.34
2016-07-14T07:22:22.373Z,23.9
2016-07-14T07:23:21.298Z,24.16
2016-07-14T07:24:21.751Z,24.49
2016-07-14T07:25:21.549Z,24.59
2016-07-14T07:26:21.430Z,24.85
2016-07-14T07:27:21.403Z,25.1
2016-07-14T07:28:21.277Z,25.27
2016-07-14T07:29:21.581Z,25.37
2016-07-14T07:30:22.288Z,25.54
2016-07-14T07:31:21.296Z,25.68
2016-07-14T07:32:21.273Z,25.75
2016-07-14T07:33:21.326Z,25.74
2016-07-14T07:34:21.351Z,25.53
2016-07-14T07:35:21.344Z,25.24
2016-07-14T07:36:21.376Z,24.97
2016-07-14T07:37:21.364Z,24.88
2016-07-14T07:38:21.344Z,24.49
2016-07-14T07:39:21.319Z,24.6
2016-07-14T07:40:21.716Z,24.69
2016-07-14T07:41:21.417Z,25.06
2016-07-14T07:42:21.355Z,25.28
2016-07-14T07:43:21.349Z,25.06
2016-07-14T07:44:21.315Z,25.53
2016-07-14T07:45:21.367Z,25.53
2016-07-14T07:46:21.325Z,25.42
2016-07-14T07:47:21.336Z,24.97
2016-07-14T07:48:21.663Z,24.35
2016-07-14T07:49:21.563Z,24.85
2016-07-14T07:50:21.647Z,25.02
2016-07-14T07:51:21.677Z,25.38
2016-07-14T07:52:21.337Z,25.74
2016-07-14T07:53:21.385Z,25.77
2016-07-14T07:54:21.447Z,25.64
2016-07-14T07:55:21.399Z,25.46
2016-07-14T07:56:21.477Z,25.34
2016-07-14T07:57:21.374Z,24.97
2016-07-14T07:58:21.300Z,24.54
2016-07-14T07:59:21.315Z,24.27
2016-07-14T08:00:21.357Z,23.8
2016-07-14T08:01:21.322Z,23.46
2016-07-14T08:02:21.352Z,23.19
2016-07-14T08:03:21.386Z,22.6
2016-07-14T08:04:21.383Z,22.28
2016-07-14T08:05:21.369Z,21.79
2016-07-14T08:06:21.407Z,21.98
2016-07-14T08:07:21.440Z,21.83
2016-07-14T08:08:21.438Z,21.78
2016-07-14T08:09:21.437Z,22.22
2016-07-14T08:10:21.376Z,22.5
2016-07-14T08:11:21.347Z,22.67
2016-07-14T08:12:21.373Z,23.07
2016-07-14T08:13:21.322Z,23.39
2016-07-14T08:14:21.386Z,23.53
2016-07-14T08:15:21.353Z,23.7
2016-07-14T08:16:21.388Z,23.8
2016-07-14T08:17:21.417Z,23.9
2016-07-14T08:18:21.366Z,23.82
2016-07-14T08:19:21.447Z,24.14
2016-07-14T08:20:21.379Z,23.68
2016-07-14T08:21:21.340Z,23.57
2016-07-14T08:22:21.899Z,23.42
2016-07-14T08:23:21.376Z,23.15
2016-07-14T08:24:21.429Z,23.04
2016-07-14T08:25:21.378Z,22.64
2016-07-14T08:26:21.443Z,22.53
2016-07-14T08:27:21.419Z,22.56
2016-07-14T08:28:21.347Z,22.39
2016-07-14T08:29:21.449Z,22.53
2016-07-14T08:30:21.402Z,22.44
2016-07-14T08:31:21.448Z,22.47
2016-07-14T08:32:21.401Z,22.1
2016-07-14T08:33:21.387Z,22.46
2016-07-14T08:34:21.391Z,22.29
2016-07-14T08:35:21.335Z,22.01
2016-07-14T08:36:21.389Z,22.1
2016-07-14T08:37:21.391Z,22.06
2016-07-14T08:38:21.413Z,21.82
2016-07-14T08:39:21.374Z,21.94
2016-07-14T08:40:21.381Z,21.74
2016-07-14T08:41:21.379Z,21.61
2016-07-14T08:42:21.367Z,21.53
2016-07-14T08:43:21.364Z,21.51
2016-07-14T08:44:21.380Z,21.3
2016-07-14T08:45:21.375Z,21.21
2016-07-14T08:46:21.441Z,21.23
2016-07-14T08:47:21.380Z,21.23
2016-07-14T08:48:21.440Z,21.16
2016-07-14T08:49:21.446Z,20.93
2016-07-14T08:50:21.439Z,21.05
2016-07-14T08:51:21.387Z,21.06
2016-07-14T08:52:21.454Z,21.14
2016-07-14T08:53:21.449Z,21.2
2016-07-14T08:54:21.424Z,21.3
2016-07-14T08:55:21.427Z,21.19
2016-07-14T08:56:21.389Z,21.2
2016-07-14T08:57:21.440Z,21.27
2016-07-14T08:58:21.391Z,21.54
2016-07-14T08:59:21.514Z,21.57
2016-07-14T09:00:21.364Z,21.3
2016-07-14T09:01:21.364Z,21.29
2016-07-14T09:02:21.376Z,21.23
2016-07-14T09:03:21.373Z,21.16
2016-07-14T09:04:21.388Z,21.16
2016-07-14T09:05:21.412Z,21.01
2016-07-14T09:06:21.430Z,21.04
2016-07-14T09:07:21.410Z,21.16
2016-07-14T09:08:21.389Z,21.56
2016-07-14T09:09:21.424Z,21.44
2016-07-14T09:10:21.389Z,21.59
2016-07-14T09:11:21.367Z,21.67
2016-07-14T09:12:21.384Z,21.59
2016-07-14T09:13:21.411Z,21.56
2016-07-14T09:14:21.428Z,21.57
2016-07-14T09:15:21.514Z,21.56
2016-07-14T09:16:21.502Z,21.54
2016-07-14T09:17:21.476Z,21.64
2016-07-14T09:18:21.415Z,21.44
2016-07-14T09:19:21.420Z,21.39
2016-07-14T09:20:21.378Z,21.38
2016-07-14T09:21:21.504Z,21.29
2016-07-14T09:22:21.484Z,21.24
2016-07-14T09:23:21.419Z,21.21
2016-07-14T09:24:21.413Z,20.98
2016-07-14T09:25:21.445Z,21.19
2016-07-14T09:26:21.490Z,21.44
2016-07-14T09:27:21.475Z,21.39
2016-07-14T09:28:21.429Z,21.32
2016-07-14T09:29:21.535Z,21.23
2016-07-14T09:30:22.150Z,21.09
2016-07-14T09:31:21.462Z,21.2
2016-07-14T09:32:21.439Z,21.26
2016-07-14T09:33:21.543Z,21.44
2016-07-14T09:34:21.479Z,21.59
2016-07-14T09:35:21.460Z,21.63
2016-07-14T09:36:21.529Z,21.71
2016-07-14T09:37:21.744Z,22.02
2016-07-14T09:38:21.521Z,22.28
2016-07-14T09:39:21.986Z,22.54
2016-07-14T09:40:21.480Z,22.41
2016-07-14T09:41:22.087Z,22.5
2016-07-14T09:42:21.493Z,22.6
2016-07-14T09:43:22.239Z,22.39
2016-07-14T09:44:21.507Z,22.57
2016-07-14T09:45:21.722Z,22.53
2016-07-14T09:46:21.483Z,22.22
2016-07-14T09:47:22.599Z,22.16
2016-07-14T09:48:22.329Z,22.12
2016-07-14T09:49:21.649Z,21.79
2016-07-14T09:50:21.568Z,21.67
2016-07-14T09:51:21.579Z,21.59
2016-07-14T09:52:21.535Z,21.54
2016-07-14T09:53:21.513Z,21.34
2016-07-14T09:54:21.457Z,21.26
2016-07-14T09:55:21.508Z,21.46
2016-07-14T09:56:21.503Z,21.72
2016-07-14T09:57:21.503Z,21.83
2016-07-14T09:58:21.480Z,22.13
2016-07-14T09:59:21.511Z,22.04
2016-07-14T10:00:21.558Z,22.2
2016-07-14T10:01:21.617Z,22.29
2016-07-14T10:02:21.630Z,22.41
2016-07-14T10:03:21.568Z,22.52
2016-07-14T10:04:21.594Z,22.72
2016-07-14T10:05:21.555Z,22.64
2016-07-14T10:06:21.557Z,22.92
2016-07-14T10:07:21.566Z,22.44
2016-07-14T10:08:21.620Z,22.31
2016-07-14T10:09:21.611Z,22.13
2016-07-14T10:10:21.552Z,21.95
2016-07-14T10:11:22.059Z,21.94
2016-07-14T10:12:21.625Z,21.67
2016-07-14T10:13:21.644Z,21.72
2016-07-14T10:14:22.975Z,21.78
2016-07-14T10:15:21.563Z,21.67
2016-07-14T10:16:21.548Z,21.74
2016-07-14T10:17:21.516Z,21.75
2016-07-14T10:18:21.552Z,21.79
2016-07-14T10:19:21.471Z,21.81
2016-07-14T10:20:22.254Z,21.94
2016-07-14T10:21:21.485Z,22.04
2016-07-14T10:22:21.517Z,21.87
2016-07-14T10:23:21.542Z,21.97
2016-07-14T10:24:21.551Z,22.1
2016-07-14T10:25:21.522Z,22.04
2016-07-14T10:26:21.545Z,22.14
2016-07-14T10:27:21.553Z,22.12
2016-07-14T10:28:21.589Z,22.25
2016-07-14T10:29:21.497Z,22.1
2016-07-14T10:30:21.595Z,21.94
2016-07-14T10:31:21.750Z,21.42
2016-07-14T10:32:21.476Z,21.29
2016-07-14T10:33:21.481Z,21.05
2016-07-14T10:34:21.531Z,20.86
2016-07-14T10:35:21.522Z,20.66
2016-07-14T10:36:21.476Z,20.5
2016-07-14T10:37:21.578Z,20.53
2016-07-14T10:38:21.511Z,20.23
2016-07-14T10:39:21.549Z,20.12
2016-07-14T10:40:21.640Z,20.06
2016-07-14T10:41:21.470Z,19.9
2016-07-14T10:42:21.478Z,19.68
2016-07-14T10:43:21.586Z,19.72
2016-07-14T10:44:21.497Z,19.65
2016-07-14T10:45:21.600Z,19.6
2016-07-14T10:46:21.636Z,19.61
2016-07-14T10:47:21.562Z,19.6
2016-07-14T10:48:22.177Z,19.6
2016-07-14T10:49:22.170Z,19.57
2016-07-14T10:50:21.580Z,19.73
2016-07-14T10:51:21.518Z,19.83
2016-07-14T10:52:21.535Z,19.91
2016-07-14T10:53:21.544Z,19.79
2016-07-14T10:54:21.534Z,19.91
2016-07-14T10:55:21.516Z,20.05
2016-07-14T10:56:21.562Z,20.06
2016-07-14T10:57:21.559Z,20.23
2016-07-14T10:58:21.564Z,20.41
2016-07-14T10:59:21.538Z,20.5
2016-07-14T11:00:21.619Z,20.61
2016-07-14T11:01:21.509Z,20.77
2016-07-14T11:02:21.574Z,20.8
2016-07-14T11:03:21.680Z,20.68
2016-07-14T11:04:21.731Z,20.79
2016-07-14T11:05:21.546Z,21.06
2016-07-14T11:06:21.534Z,21.19
2016-07-14T11:07:21.545Z,21.17
2016-07-14T11:08:21.554Z,21.26
2016-07-14T11:09:21.513Z,21.27
2016-07-14T11:10:21.511Z,21.11
2016-07-14T11:11:21.511Z,21.41
2016-07-14T11:12:21.503Z,21.51
2016-07-14T11:14:10.448Z,21.42
2016-07-14T11:14:22.230Z,21.5
2016-07-14T11:15:22.238Z,21.36
2016-07-14T11:16:22.202Z,21.57
2016-07-14T11:17:22.209Z,21.67
2016-07-14T11:18:22.229Z,21.6
2016-07-14T11:19:22.176Z,21.64
2016-07-14T11:20:22.182Z,21.61
2016-07-14T11:21:22.154Z,21.53
2016-07-14T11:22:22.259Z,21.54
2016-07-14T11:23:22.251Z,21.41
2016-07-14T11:24:22.233Z,21.45
2016-07-14T11:25:22.204Z,21.42
2016-07-14T11:26:22.201Z,21.41
2016-07-14T11:27:22.197Z,21.39
2016-07-14T11:28:22.202Z,21.57
2016-07-14T11:29:22.171Z,21.51
2016-07-14T11:30:22.190Z,21.51
2016-07-14T11:31:22.196Z,21.56
2016-07-14T11:32:22.217Z,21.57
2016-07-14T11:33:22.170Z,21.71
2016-07-14T11:34:22.201Z,21.91
2016-07-14T11:35:22.197Z,21.99
2016-07-14T11:36:22.265Z,21.99
2016-07-14T11:37:22.198Z,22.12
2016-07-14T11:38:22.171Z,22.31
2016-07-14T11:39:22.212Z,22.38
2016-07-14T11:40:22.319Z,22.52
2016-07-14T11:41:22.180Z,22.5
2016-07-14T11:42:22.207Z,22.54
2016-07-14T11:43:22.267Z,22.65
2016-07-14T11:44:22.291Z,22.46
2016-07-14T11:45:22.210Z,22.34
2016-07-14T11:46:22.798Z,22.19
2016-07-14T11:47:22.259Z,22.22
2016-07-14T11:48:22.279Z,22.14
2016-07-14T11:49:22.188Z,22.28
2016-07-14T11:50:22.774Z,22.22
2016-07-14T11:51:22.219Z,21.92
2016-07-14T11:52:22.173Z,22.09
2016-07-14T11:53:22.238Z,22.34
2016-07-14T11:54:22.204Z,22.28
2016-07-14T11:55:22.213Z,22.52
2016-07-14T11:56:22.294Z,22.5
2016-07-14T11:57:22.225Z,22.59
2016-07-14T11:58:22.271Z,22.47
2016-07-14T11:59:22.258Z,22.27
2016-07-14T12:00:22.241Z,22.13
2016-07-14T12:01:22.191Z,22.25
2016-07-14T12:02:22.198Z,21.69
2016-07-14T12:03:22.209Z,21.74
2016-07-14T12:04:22.198Z,21.74
2016-07-14T12:05:22.214Z,21.76
2016-07-14T12:06:22.197Z,21.9
2016-07-14T12:08:22.458Z,21.57
2016-07-14T12:10:22.199Z,21.57
2016-07-14T12:11:22.183Z,21.54
2016-07-14T12:12:22.200Z,21.6
2016-07-14T12:13:22.200Z,21.44
2016-07-14T12:14:22.233Z,21.39
2016-07-14T12:15:22.288Z,21.24
2016-07-14T12:16:22.317Z,21.29
2016-07-14T12:17:23.046Z,21.29
2016-07-14T12:18:22.330Z,21.38
2016-07-14T12:19:22.437Z,21.27
2016-07-14T12:20:22.295Z,21.23
2016-07-14T12:21:22.230Z,21.13
2016-07-14T12:22:22.204Z,20.99
2016-07-14T12:23:22.199Z,20.8
2016-07-14T12:24:22.255Z,20.71
2016-07-14T12:25:22.351Z,20.8
2016-07-14T12:26:22.959Z,20.76
2016-07-14T12:27:22.226Z,20.62
2016-07-14T12:28:22.304Z,20.81
2016-07-14T12:29:22.246Z,20.76
2016-07-14T12:30:22.316Z,20.68
2016-07-14T12:31:22.322Z,20.81
2016-07-14T12:32:22.238Z,20.81
2016-07-14T12:33:22.323Z,20.71
2016-07-14T12:34:22.267Z,20.64
2016-07-14T12:35:22.358Z,20.77
2016-07-14T12:36:22.241Z,20.71
2016-07-14T12:37:22.251Z,20.81
2016-07-14T12:38:22.271Z,20.61
2016-07-14T12:39:22.313Z,20.72
2016-07-14T12:40:22.282Z,20.83
2016-07-14T12:41:22.263Z,20.68
2016-07-14T12:42:22.275Z,20.8
2016-07-14T12:43:22.930Z,20.76
2016-07-14T12:44:22.263Z,20.58
2016-07-14T12:45:22.632Z,20.69
2016-07-14T12:46:22.234Z,20.56
2016-07-14T12:47:22.954Z,20.61
2016-07-14T12:48:22.495Z,20.56
2016-07-14T12:49:22.283Z,20.79
2016-07-14T12:50:22.260Z,20.8
2016-07-14T12:51:22.312Z,20.76
2016-07-14T12:52:22.236Z,20.56
2016-07-14T12:53:22.323Z,20.66
2016-07-14T12:54:22.373Z,20.76
2016-07-14T12:55:22.248Z,20.8
2016-07-14T12:56:22.269Z,20.83
2016-07-14T12:57:22.333Z,20.74
2016-07-14T12:58:22.480Z,20.74
2016-07-14T12:59:22.819Z,20.87